createdAt,value
2023-02-14T00:00:23.163Z,5.10
2023-02-14T00:02:51.829Z,5.10
2023-02-14T00:05:20.473Z,5.10
2023-02-14T00:07:49.011Z,5.10
2023-02-14T00:10:18.332Z,5.00
2023-02-14T00:12:48.334Z,5.00
2023-02-14T00:15:25.216Z,5.00
2023-02-14T00:17:56.172Z,5.00
2023-02-14T00:20:25.019Z,5.00
2023-02-14T00:22:54.156Z,4.90
2023-02-14T00:25:22.754Z,4.90
2023-02-14T00:27:54.471Z,4.90
2023-02-14T00:30:23.351Z,4.90
2023-02-14T00:32:51.922Z,4.80
2023-02-14T00:35:20.623Z,4.80
2023-02-14T00:37:50.510Z,4.80
2023-02-14T00:40:21.243Z,4.80
2023-02-14T00:42:49.794Z,4.80
2023-02-14T00:45:20.542Z,4.80
2023-02-14T00:47:49.074Z,4.80
2023-02-14T00:50:17.993Z,4.80
2023-02-14T00:52:46.547Z,4.70
2023-02-14T00:55:15.078Z,4.70
2023-02-14T00:57:43.678Z,4.70
2023-02-14T01:00:13.764Z,4.70
2023-02-14T01:02:43.731Z,4.70
2023-02-14T01:05:12.325Z,4.70
2023-02-14T01:07:40.867Z,4.70
2023-02-14T01:10:10.045Z,4.70
2023-02-14T01:12:38.657Z,4.70
2023-02-14T01:15:07.776Z,4.70
2023-02-14T01:17:36.540Z,4.70
2023-02-14T01:20:08.393Z,4.70
2023-02-14T01:22:37.649Z,4.70
2023-02-14T01:25:07.284Z,4.70
2023-02-14T01:27:35.870Z,4.70
2023-02-14T01:30:04.742Z,4.70
2023-02-14T01:32:33.857Z,4.60
2023-02-14T01:35:02.642Z,4.60
2023-02-14T01:37:33.573Z,4.60
2023-02-14T01:40:02.568Z,4.60
2023-02-14T01:42:34.589Z,4.60
2023-02-14T01:45:05.811Z,4.60
2023-02-14T01:47:39.069Z,4.50
2023-02-14T01:50:13.347Z,4.50
2023-02-14T01:52:48.053Z,4.60
2023-02-14T01:55:20.792Z,4.60
2023-02-14T01:57:52.444Z,4.50
2023-02-14T02:00:39.218Z,4.50
2023-02-14T02:03:10.863Z,4.50
2023-02-14T02:05:43.834Z,4.50
2023-02-14T02:08:14.334Z,4.50
2023-02-14T02:10:43.317Z,4.50
2023-02-14T02:13:18.164Z,4.50
2023-02-14T02:15:55.872Z,4.50
2023-02-14T02:18:30.434Z,4.50
2023-02-14T02:21:43.941Z,4.50
2023-02-14T02:24:22.261Z,4.50
2023-02-14T02:27:33.133Z,4.50
2023-02-14T02:30:33.048Z,4.50
2023-02-14T02:33:38.128Z,4.50
2023-02-14T02:36:26.687Z,4.50
2023-02-14T02:39:06.867Z,4.50
2023-02-14T02:41:45.970Z,4.50
2023-02-14T02:44:18.857Z,4.50
2023-02-14T02:46:56.476Z,4.50
2023-02-14T02:49:52.992Z,4.50
2023-02-14T02:52:48.154Z,4.50
2023-02-14T02:55:21.829Z,4.40
2023-02-14T02:57:51.925Z,4.50
2023-02-14T03:00:23.740Z,4.40
2023-02-14T03:03:14.304Z,4.40
2023-02-14T03:05:44.237Z,4.40
2023-02-14T03:08:14.203Z,4.40
2023-02-14T03:10:42.892Z,4.40
2023-02-14T03:13:49.321Z,4.30
2023-02-14T03:16:36.828Z,4.30
2023-02-14T03:19:35.414Z,4.30
2023-02-14T03:22:09.275Z,4.30
2023-02-14T03:24:48.562Z,4.30
2023-02-14T03:27:23.094Z,4.40
2023-02-14T03:30:03.949Z,4.40
2023-02-14T03:32:40.259Z,4.40
2023-02-14T03:35:16.430Z,4.30
2023-02-14T03:37:50.728Z,4.30
2023-02-14T03:40:26.408Z,4.30
2023-02-14T03:42:59.952Z,4.30
2023-02-14T03:45:33.085Z,4.30
2023-02-14T03:48:05.423Z,4.30
2023-02-14T03:50:36.039Z,4.30
2023-02-14T03:53:06.861Z,4.30
2023-02-14T03:55:42.935Z,4.30
2023-02-14T03:58:17.419Z,4.30
2023-02-14T04:00:49.352Z,4.30
2023-02-14T04:22:03.752Z,4.30
2023-02-14T04:24:32.381Z,4.30
2023-02-14T04:27:14.773Z,4.30
2023-02-14T04:29:44.662Z,4.30
2023-02-14T04:32:15.166Z,4.40
2023-02-14T04:34:44.146Z,4.40
2023-02-14T04:37:14.800Z,4.40
2023-02-14T04:39:43.602Z,4.40
2023-02-14T04:42:12.368Z,4.40
2023-02-14T04:44:40.953Z,4.50
2023-02-14T04:47:09.661Z,4.50
2023-02-14T04:49:38.291Z,4.60
2023-02-14T04:52:29.499Z,4.60
2023-02-14T04:54:58.126Z,4.60
2023-02-14T04:57:26.719Z,4.60
2023-02-14T04:59:55.274Z,4.60
2023-02-14T05:02:24.093Z,4.60
2023-02-14T05:04:52.921Z,4.60
2023-02-14T05:07:21.500Z,4.60
2023-02-14T05:09:51.424Z,4.60
2023-02-14T05:12:20.017Z,4.60
2023-02-14T05:14:48.665Z,4.60
2023-02-14T05:17:17.270Z,4.60
2023-02-14T05:19:45.833Z,4.60
2023-02-14T05:22:18.589Z,4.60
2023-02-14T05:24:47.281Z,4.60
2023-02-14T05:27:17.193Z,4.60
2023-02-14T05:29:45.844Z,4.60
2023-02-14T05:32:14.463Z,4.60
2023-02-14T05:34:44.946Z,4.60
2023-02-14T05:37:13.502Z,4.60
2023-02-14T05:39:42.031Z,4.60
2023-02-14T05:42:10.516Z,4.60
2023-02-14T05:44:40.449Z,4.60
2023-02-14T05:47:09.656Z,4.50
2023-02-14T05:49:39.131Z,4.50
2023-02-14T05:52:07.931Z,4.50
2023-02-14T05:54:36.839Z,4.50
2023-02-14T05:57:05.390Z,4.50
2023-02-14T05:59:34.030Z,4.50
2023-02-14T06:02:04.043Z,4.50
2023-02-14T06:04:32.744Z,4.50
2023-02-14T06:07:01.322Z,4.50
2023-02-14T06:09:29.939Z,4.50
2023-02-14T06:11:59.016Z,4.50
2023-02-14T06:14:27.769Z,4.60
2023-02-14T06:16:56.523Z,4.50
2023-02-14T06:19:26.484Z,4.60
2023-02-14T06:21:54.996Z,4.60
2023-02-14T06:24:23.640Z,4.50
2023-02-14T06:26:52.177Z,4.60
2023-02-14T06:29:20.999Z,4.50
2023-02-14T06:31:49.669Z,4.60
2023-02-14T06:34:18.533Z,4.60
2023-02-14T06:36:48.538Z,4.60
2023-02-14T06:39:17.237Z,4.60
2023-02-14T06:41:45.820Z,4.60
2023-02-14T06:44:14.425Z,4.50
2023-02-14T06:46:43.083Z,4.50
2023-02-14T06:49:11.804Z,4.50
2023-02-14T06:51:40.361Z,4.50
2023-02-14T06:54:10.269Z,4.50
2023-02-14T06:56:38.815Z,4.50
2023-02-14T06:59:07.507Z,4.50
2023-02-14T07:01:36.343Z,4.50
2023-02-14T07:04:05.017Z,4.50
2023-02-14T07:06:33.680Z,4.50
2023-02-14T07:09:02.189Z,4.50
2023-02-14T07:11:32.483Z,4.50
2023-02-14T07:14:01.006Z,4.50
2023-02-14T07:16:29.684Z,4.60
2023-02-14T07:18:58.252Z,4.60
2023-02-14T07:21:27.111Z,4.60
2023-02-14T07:23:55.638Z,4.60
2023-02-14T07:26:24.215Z,4.60
2023-02-14T07:28:54.167Z,4.60
2023-02-14T07:31:23.704Z,4.60
2023-02-14T07:33:52.728Z,4.70
2023-02-14T07:36:21.582Z,4.70
2023-02-14T07:38:50.173Z,4.70
2023-02-14T07:41:18.836Z,4.70
2023-02-14T07:43:47.351Z,4.70
2023-02-14T07:46:18.420Z,4.70
2023-02-14T07:48:48.342Z,4.80
2023-02-14T07:51:16.913Z,4.80
2023-02-14T07:53:45.507Z,4.80
2023-02-14T07:56:14.074Z,4.70
2023-02-14T07:58:42.682Z,4.80
2023-02-14T08:01:11.281Z,4.70
2023-02-14T08:03:41.176Z,4.80
2023-02-14T08:06:09.928Z,4.80
2023-02-14T08:08:38.635Z,4.80
2023-02-14T08:11:07.359Z,4.80
2023-02-14T08:13:35.904Z,4.80
2023-02-14T08:16:09.627Z,4.80
2023-02-14T08:18:41.720Z,4.80
2023-02-14T08:21:12.022Z,4.90
2023-02-14T08:23:40.662Z,4.90
2023-02-14T08:26:09.218Z,4.90
2023-02-14T08:28:37.768Z,4.90
2023-02-14T08:31:06.798Z,4.90
2023-02-14T08:33:35.535Z,4.90
2023-02-14T08:36:06.330Z,4.90
2023-02-14T08:38:34.954Z,4.90
2023-02-14T08:41:06.819Z,5.00
2023-02-14T08:43:37.008Z,5.00
2023-02-14T08:46:05.934Z,5.00
2023-02-14T08:48:39.117Z,5.10
2023-02-14T08:51:10.964Z,5.10
2023-02-14T08:53:39.984Z,5.10
2023-02-14T08:56:10.282Z,5.20
2023-02-14T08:58:40.138Z,5.20
2023-02-14T09:01:10.772Z,5.30
2023-02-14T09:03:40.037Z,5.30
2023-02-14T09:06:14.172Z,5.30
2023-02-14T09:08:42.748Z,5.30
2023-02-14T09:11:14.134Z,5.30
2023-02-14T09:13:43.357Z,5.30
2023-02-14T09:16:13.363Z,5.30
2023-02-14T09:18:42.260Z,5.40
2023-02-14T09:21:13.930Z,5.40
2023-02-14T09:23:43.183Z,5.40
2023-02-14T09:26:14.112Z,5.30
2023-02-14T09:28:42.708Z,5.40
2023-02-14T09:31:13.145Z,5.50
2023-02-14T09:33:59.490Z,5.50
2023-02-14T09:36:46.729Z,5.50
2023-02-14T09:39:15.257Z,5.50
2023-02-14T09:42:04.521Z,5.50
2023-02-14T09:44:56.552Z,5.50
2023-02-14T09:47:37.226Z,5.40
2023-02-14T09:50:07.820Z,5.40
2023-02-14T09:52:38.271Z,5.50
2023-02-14T09:55:15.781Z,5.60
2023-02-14T09:57:56.031Z,5.60
2023-02-14T10:00:32.970Z,5.70
2023-02-14T10:03:15.523Z,5.80
2023-02-14T10:05:50.201Z,5.70
2023-02-14T10:08:35.302Z,5.80
2023-02-14T10:11:07.830Z,6.00
2023-02-14T10:13:41.617Z,6.10
2023-02-14T10:16:17.563Z,6.00
2023-02-14T10:18:51.391Z,6.00
2023-02-14T10:21:26.402Z,6.00
2023-02-14T10:24:02.849Z,6.00
2023-02-14T10:26:37.296Z,6.00
2023-02-14T10:29:25.236Z,6.10
2023-02-14T10:31:59.026Z,6.00
2023-02-14T10:34:37.076Z,6.00
2023-02-14T10:37:23.580Z,6.00
2023-02-14T10:40:16.503Z,6.10
2023-02-14T10:42:54.546Z,6.00
2023-02-14T10:45:32.328Z,6.10
2023-02-14T10:48:08.513Z,6.10
2023-02-14T10:50:45.696Z,6.20
2023-02-14T10:53:20.759Z,6.20
2023-02-14T10:55:57.069Z,6.10
2023-02-14T10:58:30.387Z,6.10
2023-02-14T11:01:03.547Z,6.30
2023-02-14T11:03:33.309Z,6.30
2023-02-14T11:06:11.865Z,6.40
2023-02-14T11:08:42.429Z,6.50
2023-02-14T11:11:19.520Z,6.50
2023-02-14T11:13:48.161Z,6.50
2023-02-14T11:16:30.789Z,6.40
2023-02-14T11:19:11.803Z,6.40
2023-02-14T11:21:41.463Z,6.40
2023-02-14T11:24:19.822Z,6.30
2023-02-14T11:26:53.096Z,6.30
2023-02-14T11:29:28.499Z,6.20
2023-02-14T11:31:58.074Z,6.30
2023-02-14T11:34:36.508Z,6.50
2023-02-14T11:37:17.303Z,6.60
2023-02-14T11:39:45.996Z,6.60
2023-02-14T11:42:32.733Z,6.50
2023-02-14T11:45:01.437Z,6.50
2023-02-14T11:47:33.890Z,6.60
2023-02-14T11:50:06.134Z,6.60
2023-02-14T11:52:40.513Z,6.60
2023-02-14T11:55:09.214Z,6.60
2023-02-14T11:57:41.407Z,6.60
2023-02-14T12:00:17.899Z,6.50
2023-02-14T12:02:49.022Z,6.30
2023-02-14T12:05:21.659Z,6.30
2023-02-14T12:07:52.780Z,6.10
2023-02-14T12:10:27.372Z,6.10
2023-02-14T12:13:02.482Z,6.10
2023-02-14T12:28:10.035Z,6.40
2023-02-14T12:30:38.804Z,6.60
2023-02-14T12:33:19.400Z,6.70
2023-02-14T12:35:56.455Z,6.60
2023-02-14T12:38:36.089Z,6.60
2023-02-14T12:41:21.014Z,6.60
2023-02-14T12:43:54.204Z,6.50
2023-02-14T12:46:41.577Z,6.40
2023-02-14T12:49:27.318Z,6.40
2023-02-14T12:52:04.997Z,6.30
2023-02-14T12:54:50.841Z,6.30
2023-02-14T12:57:31.165Z,6.30
2023-02-14T13:00:17.572Z,6.40
2023-02-14T13:03:02.600Z,6.50
2023-02-14T13:05:45.030Z,6.50
2023-02-14T13:08:26.515Z,6.50
2023-02-14T13:11:03.061Z,6.50
2023-02-14T13:13:41.205Z,6.50
2023-02-14T13:16:16.992Z,6.50
2023-02-14T13:18:53.792Z,6.50
2023-02-14T13:21:26.447Z,6.40
2023-02-14T13:23:59.240Z,6.30
2023-02-14T13:26:33.094Z,6.20
2023-02-14T13:29:06.777Z,6.20
2023-02-14T13:31:37.908Z,6.20
2023-02-14T13:34:15.470Z,6.20
2023-02-14T13:36:45.187Z,6.30
2023-02-14T13:39:22.387Z,6.40
2023-02-14T13:41:51.080Z,6.50
2023-02-14T13:44:44.256Z,6.50
2023-02-14T13:47:21.250Z,6.50
2023-02-14T13:49:55.730Z,6.50
2023-02-14T13:52:41.304Z,6.60
2023-02-14T13:55:15.811Z,6.60
2023-02-14T13:57:44.608Z,6.50
2023-02-14T14:00:40.323Z,6.50
2023-02-14T14:03:15.443Z,6.40
2023-02-14T14:06:06.446Z,6.30
2023-02-14T14:08:50.118Z,6.40
2023-02-14T14:15:13.749Z,6.40
2023-02-14T14:17:51.431Z,6.40
2023-02-14T14:20:47.939Z,6.40
2023-02-14T14:23:32.066Z,6.40
2023-02-14T14:26:02.002Z,6.30
2023-02-14T15:13:02.706Z,5.90
2023-02-14T15:15:32.263Z,5.90
2023-02-14T15:18:00.992Z,5.80
2023-02-14T15:20:29.866Z,5.90
2023-02-14T15:22:58.810Z,5.90
2023-02-14T15:25:30.491Z,5.90
2023-02-14T15:43:37.878Z,5.70
2023-02-14T15:46:18.946Z,5.70
2023-02-14T15:48:48.246Z,5.70
2023-02-14T15:51:20.735Z,5.70
2023-02-14T15:53:52.997Z,5.60
2023-02-14T15:56:25.034Z,5.70
2023-02-14T15:59:01.651Z,5.60
2023-02-14T16:01:31.473Z,5.60
2023-02-14T16:04:02.892Z,5.60
2023-02-14T16:06:37.700Z,5.50
2023-02-14T16:09:09.358Z,5.50
2023-02-14T16:11:40.022Z,5.50
2023-02-14T16:14:35.403Z,5.50
2023-02-14T16:17:06.905Z,5.50
2023-02-14T16:19:38.354Z,5.40
2023-02-14T16:22:10.106Z,5.40
2023-02-14T16:24:38.839Z,5.40
2023-02-14T16:27:13.377Z,5.40
2023-02-14T16:29:43.511Z,5.40
2023-02-14T16:32:16.658Z,5.40
2023-02-14T16:34:47.478Z,5.40
2023-02-14T16:37:22.408Z,5.40
2023-02-14T16:39:52.457Z,5.40
2023-02-14T16:42:21.437Z,5.30
2023-02-14T16:44:51.866Z,5.30
2023-02-14T16:47:21.932Z,5.30
2023-02-14T16:49:53.085Z,5.30
2023-02-14T16:52:24.614Z,5.30
2023-02-14T16:54:53.561Z,5.30
2023-02-14T16:57:26.329Z,5.30
2023-02-14T16:59:58.222Z,5.30
2023-02-14T17:02:30.587Z,5.30
2023-02-14T17:04:59.240Z,5.30
2023-02-14T17:07:29.198Z,5.30
2023-02-14T17:10:01.199Z,5.30
2023-02-14T17:12:36.374Z,5.30
2023-02-14T17:15:11.829Z,5.30
2023-02-14T17:17:40.597Z,5.30
2023-02-14T17:20:10.286Z,5.30
2023-02-14T17:22:39.168Z,5.20
2023-02-14T17:25:08.173Z,5.20
2023-02-14T17:27:37.633Z,5.20
2023-02-14T17:30:09.398Z,5.20
2023-02-14T17:32:38.077Z,5.20
2023-02-14T17:35:08.991Z,5.20
2023-02-14T17:37:38.235Z,5.20
2023-02-14T17:40:08.018Z,5.10
2023-02-14T17:42:38.704Z,5.10
2023-02-14T17:45:11.964Z,5.10
2023-02-14T17:47:43.398Z,5.10
2023-02-14T17:50:13.157Z,5.10
2023-02-14T17:52:41.756Z,5.00
2023-02-14T17:55:10.760Z,5.00
2023-02-14T17:57:41.073Z,5.00
2023-02-14T18:00:14.238Z,5.00
2023-02-14T18:02:42.887Z,5.00
2023-02-14T18:05:12.332Z,5.00
2023-02-14T18:07:40.999Z,5.00
2023-02-14T18:10:10.050Z,5.00
2023-02-14T18:12:38.800Z,5.00
2023-02-14T18:15:07.810Z,5.00
2023-02-14T18:17:37.801Z,5.00
2023-02-14T18:20:07.880Z,5.00
2023-02-14T18:22:36.848Z,5.00
2023-02-14T18:25:05.920Z,5.10
2023-02-14T18:27:34.531Z,5.10
2023-02-14T18:30:03.187Z,5.10
2023-02-14T18:32:32.937Z,5.00
2023-02-14T18:35:02.919Z,5.00
2023-02-14T18:37:31.881Z,5.00
2023-02-14T18:40:00.561Z,4.90
2023-02-14T18:42:29.160Z,4.90
2023-02-14T18:44:57.795Z,4.90
2023-02-14T18:47:26.420Z,4.90
2023-02-14T18:49:55.391Z,4.90
2023-02-14T18:52:26.013Z,4.90
2023-02-14T18:54:54.599Z,4.90
2023-02-14T18:57:25.002Z,4.80
2023-02-14T18:59:53.818Z,4.80
2023-02-14T19:02:22.621Z,4.90
2023-02-14T19:04:51.542Z,4.90
2023-02-14T19:07:20.187Z,4.90
2023-02-14T19:09:50.278Z,4.90
2023-02-14T19:12:18.904Z,4.90
2023-02-14T19:14:47.662Z,4.90
2023-02-14T19:17:17.642Z,4.90
2023-02-14T19:19:46.353Z,4.90
2023-02-14T19:22:14.985Z,4.90
2023-02-14T19:24:43.552Z,4.90
2023-02-14T19:27:14.836Z,4.90
2023-02-14T19:29:45.479Z,4.90
2023-02-14T19:32:14.168Z,4.90
2023-02-14T19:34:42.847Z,4.90
2023-02-14T19:37:11.566Z,4.80
2023-02-14T19:39:40.269Z,4.80
2023-02-14T19:42:09.006Z,4.80
2023-02-14T19:44:40.124Z,4.80
2023-02-14T19:47:25.368Z,4.80
2023-02-14T19:49:57.226Z,4.80
2023-02-14T19:52:28.153Z,4.80
2023-02-14T19:54:57.543Z,4.80
2023-02-14T19:57:26.281Z,4.80
2023-02-14T19:59:56.318Z,4.80
2023-02-14T20:02:25.014Z,4.80
2023-02-14T20:04:58.939Z,4.80
2023-02-14T20:07:27.625Z,4.80
2023-02-14T20:09:56.175Z,4.80
2023-02-14T20:12:24.774Z,4.70
2023-02-14T20:14:54.230Z,4.70
2023-02-14T20:17:24.282Z,4.70
2023-02-14T20:19:52.916Z,4.70
2023-02-14T20:22:23.148Z,4.70
2023-02-14T20:24:51.776Z,4.70
2023-02-14T20:27:20.655Z,4.70
2023-02-14T20:29:51.239Z,4.60
2023-02-14T20:32:20.156Z,4.60
2023-02-14T20:34:51.095Z,4.60
2023-02-14T20:37:19.905Z,4.60
2023-02-14T20:39:48.625Z,4.50
2023-02-14T20:42:17.303Z,4.50
2023-02-14T20:57:55.138Z,4.40
2023-02-14T21:00:25.763Z,4.40
2023-02-14T21:02:54.584Z,4.40
2023-02-14T21:05:23.243Z,4.40
2023-02-14T21:07:52.031Z,4.40
2023-02-14T21:10:20.682Z,4.40
2023-02-14T21:15:34.019Z,4.40
2023-02-14T21:18:02.752Z,4.40
2023-02-14T21:20:32.977Z,4.40
2023-02-14T21:23:01.611Z,4.40
2023-02-14T21:25:31.512Z,4.40
2023-02-14T21:28:00.131Z,4.40
2023-02-14T21:30:31.131Z,4.30
2023-02-14T21:33:01.225Z,4.40
2023-02-14T21:35:29.844Z,4.40
2023-02-14T21:37:58.448Z,4.30
2023-02-14T21:40:27.144Z,4.40
2023-02-14T21:42:55.728Z,4.40
2023-02-14T21:45:42.022Z,4.30
2023-02-14T21:48:37.747Z,4.30
2023-02-14T21:51:07.660Z,4.30
2023-02-14T21:53:36.462Z,4.30
2023-02-14T21:56:06.828Z,4.40
2023-02-14T21:58:35.422Z,4.30
2023-02-14T22:01:04.190Z,4.30
2023-02-14T22:03:34.750Z,4.30
2023-02-14T22:06:04.052Z,4.30
2023-02-14T22:08:33.344Z,4.30
2023-02-14T22:11:05.455Z,4.20
2023-02-14T22:13:34.820Z,4.20
2023-02-14T22:16:04.596Z,4.20
2023-02-14T22:18:35.200Z,4.20
2023-02-14T22:21:04.743Z,4.20
2023-02-14T22:23:33.928Z,4.20
2023-02-14T22:26:10.401Z,4.10
2023-02-14T22:28:39.169Z,4.10
2023-02-14T22:31:08.237Z,4.10
2023-02-14T22:33:38.237Z,4.10
2023-02-14T22:36:07.920Z,4.00
2023-02-14T22:38:37.524Z,4.00
2023-02-14T22:41:07.325Z,4.00
2023-02-14T22:43:36.088Z,4.00
2023-02-14T22:46:06.608Z,4.00
2023-02-14T22:48:35.957Z,4.00
2023-02-14T22:51:21.569Z,4.00
2023-02-14T22:53:51.681Z,3.90
2023-02-14T22:56:22.002Z,3.90
2023-02-14T22:58:54.336Z,3.80
2023-02-14T23:01:24.125Z,3.80
2023-02-14T23:03:54.860Z,3.80
2023-02-14T23:06:25.575Z,3.80
2023-02-14T23:08:54.935Z,3.70
2023-02-14T23:11:25.837Z,3.70
2023-02-14T23:48:29.710Z,3.00
2023-02-14T23:51:01.287Z,3.00
2023-02-14T23:53:29.884Z,2.90
2023-02-14T23:56:03.326Z,2.90
2023-02-14T23:58:32.316Z,2.90
